Time;durP1;ratioP1;P1;durP2;ratioP2;P2;SDS_P1;SDS_P2;PMS_P1;PMS_P2;Temp;Humidity;BMP_temperature;BMP_pressure;BME280_temperature;BME280_humidity;BME280_pressure;Samples;Min_cycle;Max_cycle;Signal;HPM_P1;HPM_P2
2022/03/10 00:00:49;;;;;;;21.27;14.20;;;1.20;99.90;;;;;;5019963;28;20041;-72
2022/03/10 00:03:17;;;;;;;21.23;14.38;;;1.30;99.90;;;;;;5038203;28;20060;-74
2022/03/10 00:05:43;;;;;;;27.60;15.55;;;1.80;99.90;;;;;;5057776;28;20373;-74
2022/03/10 00:08:09;;;;;;;23.38;15.10;;;1.90;99.90;;;;;;5040239;28;20045;-75
2022/03/10 00:10:34;;;;;;;22.45;16.08;;;1.20;99.90;;;;;;5040411;28;20346;-74
2022/03/10 00:13:00;;;;;;;22.55;15.40;;;1.20;99.90;;;;;;5057472;28;20088;-74
2022/03/10 00:15:26;;;;;;;24.58;16.23;;;1.20;99.90;;;;;;5055640;28;20091;-73
2022/03/10 00:17:52;;;;;;;28.00;15.40;;;1.20;99.90;;;;;;5021900;28;20044;-74
2022/03/10 00:20:19;;;;;;;26.92;15.25;;;1.20;99.90;;;;;;5057208;28;20052;-72
2022/03/10 00:22:49;;;;;;;25.30;15.45;;;1.10;99.90;;;;;;5057150;28;20053;-74
2022/03/10 00:25:16;;;;;;;24.80;15.60;;;1.10;99.90;;;;;;5057135;28;20473;-73
2022/03/10 00:27:42;;;;;;;23.48;15.35;;;1.00;99.90;;;;;;5039886;28;20049;-72
2022/03/10 00:30:09;;;;;;;23.50;15.73;;;0.90;99.90;;;;;;5039719;28;20508;-74
2022/03/10 00:32:46;;;;;;;25.98;15.48;;;0.80;99.90;;;;;;5039351;28;20048;-72
2022/03/10 00:35:16;;;;;;;23.98;16.15;;;0.70;99.90;;;;;;5039065;28;20048;-73
2022/03/10 00:37:41;;;;;;;22.40;16.13;;;0.60;99.90;;;;;;5057053;28;20041;-72
2022/03/10 00:40:07;;;;;;;26.42;15.98;;;0.60;99.90;;;;;;5039308;28;20373;-74
2022/03/10 00:42:40;;;;;;;22.23;15.00;;;0.50;99.90;;;;;;5057196;28;20457;-74
2022/03/10 00:45:07;;;;;;;23.10;15.07;;;0.40;99.90;;;;;;5057079;28;20405;-74
2022/03/10 00:47:33;;;;;;;21.77;15.85;;;0.40;99.90;;;;;;5039302;28;20345;-73
2022/03/10 00:49:59;;;;;;;23.33;16.17;;;0.30;99.90;;;;;;5064311;28;20136;-73
2022/03/10 00:52:25;;;;;;;23.77;16.40;;;0.30;99.90;;;;;;5044968;28;20131;-73
2022/03/10 00:54:50;;;;;;;26.40;17.10;;;0.30;99.90;;;;;;5039171;28;20546;-72
2022/03/10 00:57:16;;;;;;;23.83;16.95;;;0.30;99.90;;;;;;5056533;28;20053;-72
2022/03/10 00:59:41;;;;;;;29.85;16.98;;;0.20;99.90;;;;;;5056519;28;20123;-74
2022/03/10 01:02:07;;;;;;;26.17;17.60;;;0.60;99.90;;;;;;5038874;28;20049;-73
2022/03/10 01:04:33;;;;;;;26.42;16.45;;;0.20;99.90;;;;;;5022798;28;20476;-74
2022/03/10 01:06:58;;;;;;;24.25;15.82;;;0.20;99.90;;;;;;5039630;28;20049;-74
2022/03/10 01:09:24;;;;;;;25.45;15.70;;;0.10;99.90;;;;;;5038915;28;20381;-73
2022/03/10 01:11:49;;;;;;;29.85;17.25;;;0.10;99.90;;;;;;5056454;28;20377;-75
2022/03/10 01:14:15;;;;;;;26.60;16.30;;;0.10;99.90;;;;;;5038638;28;21601;-72
2022/03/10 01:16:41;;;;;;;23.65;16.17;;;0.00;99.90;;;;;;5055832;28;20088;-72
2022/03/10 01:19:08;;;;;;;26.60;17.10;;;0.00;99.90;;;;;;5040543;28;20040;-73
2022/03/10 01:21:34;;;;;;;24.08;16.50;;;0.10;99.90;;;;;;5030281;28;20474;-73
2022/03/10 01:23:59;;;;;;;28.83;15.95;;;0.00;99.90;;;;;;5055484;28;20133;-75
2022/03/10 01:26:25;;;;;;;24.20;16.58;;;0.00;99.90;;;;;;5039026;28;20056;-74
2022/03/10 01:28:50;;;;;;;27.10;17.65;;;-0.10;99.90;;;;;;5056198;28;20053;-75
2022/03/10 01:31:16;;;;;;;29.40;17.50;;;-0.10;99.90;;;;;;5038310;28;20041;-73
2022/03/10 01:33:42;;;;;;;27.80;17.42;;;-0.20;99.90;;;;;;5038732;28;20127;-73
2022/03/10 01:36:08;;;;;;;25.90;17.38;;;-0.20;99.90;;;;;;5055803;28;20094;-74
2022/03/10 01:38:39;;;;;;;28.23;16.80;;;-0.20;99.90;;;;;;5055705;28;20465;-75
2022/03/10 01:41:05;;;;;;;28.88;17.25;;;-0.20;99.90;;;;;;5055932;28;20053;-73
2022/03/10 01:43:31;;;;;;;25.73;17.08;;;-0.20;99.90;;;;;;5038142;28;20492;-74
2022/03/10 01:45:57;;;;;;;32.90;17.73;;;-0.20;99.90;;;;;;5055496;28;20040;-73
2022/03/10 01:48:23;;;;;;;25.02;17.02;;;-0.10;99.90;;;;;;5056003;28;20040;-73
2022/03/10 01:50:48;;;;;;;25.17;16.83;;;-0.20;99.90;;;;;;5048039;28;20049;-74
2022/03/10 01:53:15;;;;;;;24.95;16.95;;;-0.20;99.90;;;;;;5038233;28;20055;-74
2022/03/10 01:55:41;;;;;;;28.23;17.42;;;-0.20;99.90;;;;;;5055477;28;20037;-75
2022/03/10 01:58:07;;;;;;;28.38;17.25;;;-0.30;99.90;;;;;;5037760;28;20095;-75
2022/03/10 02:00:33;;;;;;;26.08;17.45;;;-0.30;99.90;;;;;;5021468;28;20418;-74
2022/03/10 02:02:58;;;;;;;27.15;16.92;;;-0.30;99.90;;;;;;5055813;28;20045;-75
2022/03/10 02:05:24;;;;;;;28.08;17.60;;;-0.30;99.90;;;;;;5038025;28;20044;-74
2022/03/10 02:10:35;;;;;;;24.83;16.45;;;-0.30;99.90;;;;;;5055468;28;20377;-74
2022/03/10 02:13:00;;;;;;;26.58;16.85;;;-0.40;99.90;;;;;;5037435;28;20048;-73
2022/03/10 02:18:12;;;;;;;24.48;15.93;;;-0.80;99.90;;;;;;5038029;28;20135;-74
2022/03/10 02:20:39;;;;;;;25.33;16.48;;;-0.40;99.90;;;;;;5058902;28;20076;-73
2022/03/10 02:23:07;;;;;;;24.33;17.23;;;-0.40;99.90;;;;;;5037542;28;20037;-75
2022/03/10 02:25:35;;;;;;;31.15;17.40;;;-0.40;99.90;;;;;;5054279;28;20057;-74
2022/03/10 02:28:01;;;;;;;26.92;17.70;;;-0.40;99.90;;;;;;5037541;28;20119;-74
2022/03/10 02:30:30;;;;;;;26.05;17.13;;;-0.50;99.90;;;;;;5037373;28;20080;-73
2022/03/10 02:32:59;;;;;;;26.00;17.67;;;-0.50;99.90;;;;;;5054767;28;20132;-73
2022/03/10 02:35:25;;;;;;;27.90;17.25;;;-0.60;99.90;;;;;;5037633;28;20365;-72
2022/03/10 02:37:51;;;;;;;32.33;17.60;;;-0.60;99.90;;;;;;5037569;28;20044;-74
2022/03/10 02:40:17;;;;;;;24.88;16.90;;;-0.60;99.90;;;;;;5037280;28;20099;-73
2022/03/10 02:42:42;;;;;;;30.83;17.42;;;-0.60;99.90;;;;;;5037238;28;20045;-73
2022/03/10 02:45:09;;;;;;;33.78;18.52;;;-0.60;99.90;;;;;;5054844;28;20040;-73
2022/03/10 02:47:35;;;;;;;25.45;17.13;;;-0.60;99.90;;;;;;5020657;28;20064;-74
2022/03/10 02:50:03;;;;;;;35.03;18.52;;;-0.70;99.90;;;;;;5047445;28;20049;-73
2022/03/10 02:52:28;;;;;;;30.35;17.40;;;-0.70;99.90;;;;;;5054641;28;20053;-73
2022/03/10 02:54:54;;;;;;;26.67;16.60;;;-0.70;99.90;;;;;;5036620;28;20056;-73
2022/03/10 02:57:20;;;;;;;26.70;17.52;;;-0.70;99.90;;;;;;5037666;28;20366;-74
2022/03/10 02:59:46;;;;;;;27.67;17.83;;;-0.70;99.90;;;;;;5054439;28;20045;-74
2022/03/10 03:02:12;;;;;;;33.28;17.92;;;-0.70;99.90;;;;;;5037609;28;20342;-73
2022/03/10 03:04:38;;;;;;;25.77;16.77;;;-0.70;99.90;;;;;;5054669;28;20381;-74
2022/03/10 03:07:03;;;;;;;28.30;18.40;;;-0.70;99.90;;;;;;5037083;28;20053;-72
2022/03/10 03:09:29;;;;;;;30.88;18.63;;;-0.60;99.90;;;;;;5036612;28;20033;-73
2022/03/10 03:11:55;;;;;;;27.75;17.50;;;-0.50;99.90;;;;;;5054297;28;20389;-73
2022/03/10 03:14:23;;;;;;;28.00;17.60;;;-0.40;99.90;;;;;;5036693;28;20052;-72
2022/03/10 03:16:54;;;;;;;27.25;16.85;;;-0.30;99.90;;;;;;5037008;28;20377;-74
2022/03/10 03:19:20;;;;;;;29.27;17.15;;;-0.30;99.90;;;;;;5022697;28;20052;-73
2022/03/10 03:21:46;;;;;;;28.15;15.27;;;-0.20;99.90;;;;;;5036978;28;20049;-74
2022/03/10 03:24:12;;;;;;;24.55;17.05;;;0.40;99.90;;;;;;5036813;28;20048;-74
2022/03/10 03:26:37;;;;;;;27.80;17.80;;;-0.10;99.90;;;;;;5036678;28;20075;-74
2022/03/10 03:29:03;;;;;;;23.52;16.20;;;-0.10;99.90;;;;;;5054318;28;20056;-74
2022/03/10 03:31:29;;;;;;;22.23;15.05;;;0.00;99.90;;;;;;5037299;28;20072;-73
2022/03/10 03:33:54;;;;;;;28.73;16.23;;;0.00;99.90;;;;;;5053757;28;20132;-72
2022/03/10 03:36:20;;;;;;;31.63;16.00;;;0.10;99.90;;;;;;5036610;28;20048;-74
2022/03/10 03:38:45;;;;;;;25.60;16.73;;;0.10;99.90;;;;;;5057587;28;20115;-74
2022/03/10 03:41:11;;;;;;;26.25;16.20;;;0.20;99.90;;;;;;5055166;28;20049;-73
2022/03/10 03:43:37;;;;;;;25.67;15.90;;;0.10;99.90;;;;;;5058152;28;20127;-75
2022/03/10 03:46:02;;;;;;;25.70;15.70;;;0.10;99.90;;;;;;5057796;28;20056;-72
2022/03/10 03:48:28;;;;;;;27.65;16.60;;;0.10;99.90;;;;;;5057844;28;20049;-73
2022/03/10 03:50:53;;;;;;;27.52;16.58;;;0.10;99.90;;;;;;5046020;28;20408;-72
2022/03/10 03:53:19;;;;;;;26.48;16.50;;;0.10;99.90;;;;;;5042548;28;20055;-75
2022/03/10 03:55:45;;;;;;;26.88;17.25;;;0.00;99.90;;;;;;5023646;28;20052;-74
2022/03/10 03:58:11;;;;;;;28.52;16.67;;;0.00;99.90;;;;;;5040783;28;20485;-76
2022/03/10 04:00:37;;;;;;;25.20;17.23;;;-0.10;99.90;;;;;;5040180;28;20449;-73
2022/03/10 04:03:10;;;;;;;24.60;17.00;;;-0.10;99.90;;;;;;5057625;28;20040;-73
2022/03/10 04:05:39;;;;;;;25.30;16.27;;;-0.30;99.90;;;;;;5040209;28;20439;-74
2022/03/10 04:08:05;;;;;;;27.45;17.23;;;-0.40;99.90;;;;;;5040942;28;20405;-73
2022/03/10 04:10:31;;;;;;;25.40;17.15;;;-0.40;99.90;;;;;;5057585;28;20121;-73
2022/03/10 04:12:57;;;;;;;25.73;15.95;;;-0.20;99.90;;;;;;5040253;28;20061;-74
2022/03/10 04:15:23;;;;;;;28.63;17.27;;;-0.40;99.90;;;;;;5037669;28;20045;-74
2022/03/10 04:17:49;;;;;;;25.45;15.90;;;-0.50;99.90;;;;;;5057445;28;20477;-73
2022/03/10 04:20:14;;;;;;;25.35;16.27;;;-0.50;99.90;;;;;;5039459;28;20049;-74
2022/03/10 04:22:40;;;;;;;26.60;16.33;;;-0.50;99.90;;;;;;5052492;28;20123;-73
2022/03/10 04:25:08;;;;;;;23.80;15.48;;;-0.60;99.90;;;;;;5037138;28;20469;-75
2022/03/10 04:27:34;;;;;;;28.90;16.65;;;-0.70;99.90;;;;;;5039916;28;20064;-73
2022/03/10 04:29:59;;;;;;;24.45;16.40;;;-0.70;99.90;;;;;;5039474;28;20055;-72
2022/03/10 04:32:25;;;;;;;23.98;15.50;;;-0.70;99.90;;;;;;5040078;28;20052;-73
2022/03/10 04:34:51;;;;;;;25.42;16.30;;;-0.80;99.90;;;;;;5039653;28;20060;-74
2022/03/10 04:37:16;;;;;;;26.05;16.33;;;-0.70;99.90;;;;;;5039841;28;20048;-74
2022/03/10 04:39:42;;;;;;;27.65;17.20;;;-0.80;99.90;;;;;;5039395;28;20045;-73
2022/03/10 04:42:08;;;;;;;23.88;16.13;;;-0.80;99.90;;;;;;5039628;28;20049;-74
2022/03/10 04:44:33;;;;;;;25.50;16.50;;;-0.80;99.90;;;;;;5057119;28;20055;-75
2022/03/10 04:46:59;;;;;;;25.27;16.02;;;-0.70;99.90;;;;;;5056787;28;20076;-75
2022/03/10 04:49:24;;;;;;;26.10;16.90;;;-0.70;99.90;;;;;;5038421;28;20072;-74
2022/03/10 04:51:50;;;;;;;27.88;16.67;;;-0.60;99.90;;;;;;5039457;28;20049;-72
2022/03/10 04:54:16;;;;;;;24.42;15.98;;;-0.50;99.90;;;;;;5057060;28;20052;-72
2022/03/10 04:56:41;;;;;;;24.48;16.10;;;-0.50;99.90;;;;;;5040441;28;20135;-72
2022/03/10 04:59:07;;;;;;;24.80;16.00;;;-0.40;99.90;;;;;;5065164;28;20059;-73
2022/03/10 05:01:32;;;;;;;27.63;16.27;;;-0.40;99.90;;;;;;5063830;28;20044;-73
2022/03/10 05:03:58;;;;;;;25.20;16.45;;;-0.40;99.90;;;;;;5061510;28;20041;-74
2022/03/10 05:06:23;;;;;;;24.08;16.20;;;0.30;99.90;;;;;;5049117;28;20051;-72
2022/03/10 05:08:49;;;;;;;28.20;16.80;;;-0.50;99.90;;;;;;5058647;28;20106;-74
2022/03/10 05:11:14;;;;;;;25.63;16.48;;;-0.50;99.90;;;;;;5076984;28;20056;-71
2022/03/10 05:13:40;;;;;;;24.63;16.13;;;-0.60;99.90;;;;;;5076571;28;20044;-73
2022/03/10 05:16:06;;;;;;;24.58;15.75;;;-0.60;99.90;;;;;;5042757;28;20105;-74
2022/03/10 05:18:31;;;;;;;23.65;16.25;;;-0.70;99.90;;;;;;5072336;28;20076;-75
2022/03/10 05:20:57;;;;;;;28.73;17.13;;;-0.70;99.90;;;;;;5022346;28;20060;-74
2022/03/10 05:23:22;;;;;;;25.98;16.17;;;-0.80;99.90;;;;;;5038346;28;20115;-74
2022/03/10 05:25:48;;;;;;;27.83;17.17;;;-0.80;99.90;;;;;;5057455;28;20056;-73
2022/03/10 05:28:14;;;;;;;26.50;17.08;;;-0.80;99.90;;;;;;5074891;28;20424;-73
2022/03/10 05:30:41;;;;;;;25.52;16.25;;;-0.90;99.90;;;;;;5038766;28;20052;-75
2022/03/10 05:33:09;;;;;;;24.27;16.52;;;-0.90;99.90;;;;;;5056721;28;20365;-75
2022/03/10 05:35:34;;;;;;;26.33;17.25;;;-0.90;99.90;;;;;;5038383;28;20132;-74
2022/03/10 05:38:00;;;;;;;25.92;17.05;;;-0.90;99.90;;;;;;5056494;28;20131;-74
2022/03/10 05:40:26;;;;;;;22.38;15.68;;;-0.90;99.90;;;;;;5039339;28;20045;-72
2022/03/10 05:42:54;;;;;;;24.67;16.65;;;-0.90;99.90;;;;;;5039440;28;20048;-74
2022/03/10 05:45:20;;;;;;;26.90;16.45;;;-1.00;99.90;;;;;;5038969;28;20134;-74
2022/03/10 05:47:55;;;;;;;23.98;16.13;;;-1.00;99.90;;;;;;5038343;28;20060;-73
2022/03/10 05:50:22;;;;;;;25.23;16.48;;;-1.00;99.90;;;;;;5021591;28;20476;-74
2022/03/10 05:52:48;;;;;;;24.90;17.40;;;-0.90;99.90;;;;;;5037955;28;20120;-73
2022/03/10 05:55:15;;;;;;;28.50;17.02;;;-1.00;99.90;;;;;;5055520;28;20116;-70
2022/03/10 05:57:40;;;;;;;28.15;16.45;;;-1.00;99.90;;;;;;5070979;28;20468;-70
2022/03/10 06:00:08;;;;;;;26.05;17.35;;;-1.00;99.90;;;;;;5057397;28;20119;-71
2022/03/10 06:02:34;;;;;;;23.73;15.45;;;-1.00;99.90;;;;;;5074801;28;20101;-73
2022/03/10 06:05:00;;;;;;;24.80;16.60;;;-1.00;99.90;;;;;;5057900;28;20460;-73
2022/03/10 06:07:29;;;;;;;26.85;16.52;;;-1.00;99.90;;;;;;5075499;28;20045;-73
2022/03/10 06:09:55;;;;;;;23.70;16.45;;;-1.00;99.90;;;;;;5057723;28;20048;-73
2022/03/10 06:12:23;;;;;;;26.42;16.50;;;-1.00;99.90;;;;;;5072408;28;20103;-74
2022/03/10 06:14:52;;;;;;;27.85;16.63;;;-1.00;99.90;;;;;;5037646;28;20049;-73
2022/03/10 06:17:17;;;;;;;26.75;16.75;;;-1.00;99.90;;;;;;5055377;28;20091;-72
2022/03/10 06:19:43;;;;;;;25.63;17.20;;;-1.00;99.90;;;;;;5051835;28;20414;-73
2022/03/10 06:22:09;;;;;;;29.40;16.02;;;-0.90;99.90;;;;;;5055313;28;20343;-73
2022/03/10 06:24:34;;;;;;;26.23;17.10;;;-0.90;99.90;;;;;;5055462;28;20437;-72
2022/03/10 06:27:00;;;;;;;27.35;16.00;;;-0.80;99.90;;;;;;5047127;28;20056;-73
2022/03/10 06:29:25;;;;;;;26.25;17.50;;;-0.80;99.90;;;;;;5057665;28;20059;-73
2022/03/10 06:31:52;;;;;;;25.52;15.82;;;-0.80;99.90;;;;;;5074974;28;20036;-74
2022/03/10 06:34:18;;;;;;;28.60;17.20;;;-0.70;99.90;;;;;;5057679;28;20064;-75
2022/03/10 06:36:43;;;;;;;27.83;16.27;;;-0.60;99.90;;;;;;5057380;28;20048;-73
2022/03/10 06:39:09;;;;;;;25.67;15.38;;;-0.60;99.90;;;;;;5075007;28;20127;-72
2022/03/10 06:41:35;;;;;;;23.70;15.95;;;-0.50;99.90;;;;;;5075287;28;20044;-74
2022/03/10 06:44:00;;;;;;;27.33;16.63;;;-0.40;99.90;;;;;;5074818;28;20133;-72
2022/03/10 06:46:26;;;;;;;26.40;16.65;;;-0.30;99.90;;;;;;5074628;28;20040;-73
2022/03/10 06:48:51;;;;;;;25.33;16.13;;;-0.20;99.90;;;;;;5057482;28;20045;-72
2022/03/10 06:51:17;;;;;;;26.70;15.18;;;-0.10;99.90;;;;;;5054280;28;20088;-74
2022/03/10 06:53:42;;;;;;;25.83;16.15;;;-0.10;99.90;;;;;;5074606;28;20110;-72
2022/03/10 06:56:08;;;;;;;25.05;16.75;;;0.00;99.90;;;;;;5071192;28;20106;-72
2022/03/10 06:58:34;;;;;;;25.55;15.98;;;0.10;99.90;;;;;;5055613;28;20053;-72
2022/03/10 07:00:59;;;;;;;23.58;15.93;;;0.30;99.90;;;;;;5020233;28;20049;-72
2022/03/10 07:03:25;;;;;;;27.42;15.10;;;0.40;99.90;;;;;;5054645;28;20110;-73
2022/03/10 07:05:50;;;;;;;25.60;16.27;;;0.60;99.90;;;;;;5021445;28;20052;-72
2022/03/10 07:08:16;;;;;;;27.20;15.57;;;0.70;99.90;;;;;;5054659;28;20128;-74
2022/03/10 07:10:41;;;;;;;23.23;16.00;;;1.50;99.90;;;;;;5054598;28;20060;-72
2022/03/10 07:13:08;;;;;;;26.58;15.73;;;1.50;99.90;;;;;;5057767;28;20071;-74
2022/03/10 07:15:34;;;;;;;21.85;14.85;;;1.00;99.90;;;;;;5041062;28;20045;-73
2022/03/10 07:17:59;;;;;;;25.83;15.38;;;1.00;99.90;;;;;;5058662;28;20048;-72
2022/03/10 07:20:25;;;;;;;29.00;15.45;;;1.20;99.90;;;;;;5040574;28;20059;-73
2022/03/10 07:22:50;;;;;;;27.17;16.10;;;1.30;99.90;;;;;;5038178;28;20053;-74
2022/03/10 07:25:16;;;;;;;23.95;15.15;;;1.30;99.90;;;;;;5058615;28;20436;-73
2022/03/10 07:27:42;;;;;;;28.42;15.63;;;1.70;99.90;;;;;;5058479;28;20423;-74
2022/03/10 07:30:08;;;;;;;21.27;14.52;;;1.40;99.90;;;;;;5060836;28;20048;-74
2022/03/10 07:32:34;;;;;;;24.90;15.43;;;1.70;99.90;;;;;;5061032;28;20076;-75
2022/03/10 07:35:00;;;;;;;22.05;15.27;;;1.80;99.90;;;;;;5078413;28;20457;-75
2022/03/10 07:37:26;;;;;;;22.08;14.23;;;1.90;99.90;;;;;;5078541;28;20121;-74
2022/03/10 07:39:52;;;;;;;23.10;14.25;;;1.90;99.90;;;;;;5060471;28;20144;-72
2022/03/10 07:42:17;;;;;;;29.08;14.43;;;2.10;99.90;;;;;;5078259;28;20041;-74
2022/03/10 07:44:43;;;;;;;24.60;14.90;;;2.10;99.90;;;;;;5060498;28;20360;-75
2022/03/10 07:47:09;;;;;;;27.08;14.68;;;2.20;99.90;;;;;;5078095;28;20445;-73
2022/03/10 07:49:35;;;;;;;23.02;14.98;;;2.40;99.90;;;;;;5061067;28;20099;-73
2022/03/10 07:52:02;;;;;;;22.95;14.70;;;2.50;99.90;;;;;;5078041;28;20476;-74
2022/03/10 07:54:27;;;;;;;23.73;15.00;;;2.60;99.90;;;;;;5060612;28;20067;-73
2022/03/10 07:56:53;;;;;;;26.67;14.65;;;2.70;99.90;;;;;;5043641;28;20049;-73
2022/03/10 07:59:19;;;;;;;23.08;14.70;;;2.90;99.90;;;;;;5057793;28;20440;-74
2022/03/10 08:01:44;;;;;;;20.98;13.88;;;3.00;99.90;;;;;;5057869;28;20033;-73
2022/03/10 08:04:10;;;;;;;19.80;13.70;;;3.10;99.90;;;;;;5057845;28;20041;-74
2022/03/10 08:06:36;;;;;;;21.90;14.05;;;3.20;99.90;;;;;;5040484;28;20056;-74
2022/03/10 08:09:02;;;;;;;25.98;15.13;;;3.40;99.90;;;;;;5040094;28;20033;-73
2022/03/10 08:11:29;;;;;;;23.00;15.05;;;3.50;99.90;;;;;;5040170;28;20473;-72
2022/03/10 08:13:54;;;;;;;21.00;13.30;;;3.60;99.90;;;;;;5040191;28;20060;-73
2022/03/10 08:16:20;;;;;;;20.42;14.25;;;3.70;99.90;;;;;;5057931;28;20045;-73
2022/03/10 08:18:47;;;;;;;24.88;14.25;;;3.80;99.90;;;;;;5057466;28;20457;-73
2022/03/10 08:21:13;;;;;;;25.13;14.98;;;3.90;99.90;;;;;;5057271;28;20049;-75
2022/03/10 08:23:38;;;;;;;23.45;13.52;;;4.00;99.90;;;;;;5056558;28;20060;-72
2022/03/10 08:26:04;;;;;;;21.70;13.68;;;4.10;99.90;;;;;;5060905;28;20036;-72
2022/03/10 08:28:29;;;;;;;22.30;13.80;;;4.20;99.90;;;;;;5057336;28;20360;-74
2022/03/10 08:30:56;;;;;;;20.38;13.32;;;4.30;99.90;;;;;;5057508;28;20560;-74
2022/03/10 08:33:21;;;;;;;22.95;14.23;;;4.40;99.90;;;;;;5056619;28;20466;-71
2022/03/10 08:35:47;;;;;;;20.15;12.75;;;4.50;99.90;;;;;;5039740;28;20045;-72
2022/03/10 08:38:13;;;;;;;21.98;13.90;;;4.70;99.90;;;;;;5054335;28;20045;-73
2022/03/10 08:40:39;;;;;;;21.33;13.80;;;4.80;99.90;;;;;;5057278;28;20087;-72
2022/03/10 08:43:05;;;;;;;20.23;12.55;;;4.90;99.90;;;;;;5056972;28;20461;-73
2022/03/10 08:45:31;;;;;;;23.98;14.77;;;5.00;99.90;;;;;;5057776;28;20049;-74
2022/03/10 08:47:57;;;;;;;20.83;14.25;;;5.10;99.90;;;;;;5056948;28;20041;-73
2022/03/10 08:50:23;;;;;;;22.05;13.75;;;5.20;99.90;;;;;;5039228;28;20056;-74
2022/03/10 08:52:49;;;;;;;22.63;14.48;;;5.30;99.90;;;;;;5039588;28;20045;-73
2022/03/10 08:55:15;;;;;;;21.05;13.73;;;5.40;99.90;;;;;;5040986;28;20052;-73
2022/03/10 08:57:41;;;;;;;22.35;14.15;;;5.50;99.90;;;;;;5058029;28;20499;-73
2022/03/10 09:00:09;;;;;;;22.75;13.82;;;5.50;99.90;;;;;;5059378;28;20044;-72
2022/03/10 09:02:34;;;;;;;20.30;13.35;;;5.60;99.90;;;;;;5076735;28;20050;-74
2022/03/10 09:05:00;;;;;;;18.50;12.93;;;5.70;99.90;;;;;;5059736;28;20368;-71
2022/03/10 09:07:26;;;;;;;21.92;13.45;;;5.80;99.90;;;;;;5076739;28;20045;-73
2022/03/10 09:09:51;;;;;;;20.63;13.82;;;5.90;99.90;;;;;;5076883;28;20056;-73
2022/03/10 09:12:17;;;;;;;22.02;14.15;;;6.00;99.90;;;;;;5058460;28;20059;-72
2022/03/10 09:14:43;;;;;;;22.02;14.40;;;6.10;99.90;;;;;;5059240;28;20118;-71
2022/03/10 09:17:08;;;;;;;21.70;14.40;;;6.20;99.90;;;;;;5059618;28;20044;-71
2022/03/10 09:19:34;;;;;;;19.73;13.40;;;6.30;99.90;;;;;;5058832;28;20353;-73
2022/03/10 09:22:01;;;;;;;19.23;13.45;;;6.40;99.90;;;;;;5076610;28;20101;-72
2022/03/10 09:24:26;;;;;;;19.58;13.30;;;6.50;99.90;;;;;;5058800;28;20048;-72
2022/03/10 09:26:52;;;;;;;21.73;13.63;;;6.60;99.90;;;;;;5044013;28;20465;-72
2022/03/10 09:29:18;;;;;;;20.38;13.95;;;6.60;99.90;;;;;;5039039;28;20066;-72
2022/03/10 09:31:43;;;;;;;19.83;13.68;;;6.70;99.90;;;;;;5055551;28;20483;-74
2022/03/10 09:34:09;;;;;;;22.92;14.02;;;6.80;99.90;;;;;;5055773;28;20056;-72
2022/03/10 09:36:34;;;;;;;29.42;13.55;;;6.90;99.90;;;;;;5055559;28;20049;-72
2022/03/10 09:39:00;;;;;;;22.35;14.73;;;7.10;99.90;;;;;;5037679;28;20144;-72
2022/03/10 09:41:28;;;;;;;22.60;12.38;;;7.30;99.90;;;;;;5055670;28;20124;-75
2022/03/10 09:43:54;;;;;;;22.77;14.55;;;7.40;99.90;;;;;;5038309;28;20124;-71
2022/03/10 09:46:21;;;;;;;19.67;13.68;;;7.50;99.90;;;;;;5055828;28;20426;-73
2022/03/10 09:48:47;;;;;;;18.75;13.45;;;7.60;99.90;;;;;;5055749;28;20118;-74
2022/03/10 09:51:13;;;;;;;28.67;15.00;;;7.70;99.90;;;;;;5056102;28;20037;-74
2022/03/10 09:53:39;;;;;;;21.52;13.50;;;7.80;99.90;;;;;;5056059;28;20433;-73
2022/03/10 09:56:06;;;;;;;22.63;14.48;;;7.90;99.90;;;;;;5039654;28;20132;-75
2022/03/10 09:58:32;;;;;;;20.67;13.77;;;8.00;99.90;;;;;;5038305;28;20075;-74
2022/03/10 10:01:02;;;;;;;23.25;14.55;;;8.10;99.90;;;;;;5038221;28;20529;-75
2022/03/10 10:03:28;;;;;;;19.98;13.82;;;8.20;99.90;;;;;;5055629;28;20045;-72
2022/03/10 10:05:59;;;;;;;21.88;13.68;;;8.30;99.90;;;;;;5038147;28;20041;-72
2022/03/10 10:08:25;;;;;;;18.75;13.50;;;8.50;99.90;;;;;;5024404;28;20072;-72
2022/03/10 10:10:53;;;;;;;22.77;13.82;;;8.60;99.90;;;;;;5075422;28;20387;-74
2022/03/10 10:13:39;;;;;;;22.52;14.45;;;8.70;99.90;;;;;;5074723;28;20076;-73
2022/03/10 10:16:10;;;;;;;21.95;13.80;;;8.90;99.90;;;;;;5057647;28;20468;-73
2022/03/10 10:18:38;;;;;;;21.45;13.65;;;8.90;99.90;;;;;;5075381;28;20059;-71
2022/03/10 10:21:05;;;;;;;23.00;14.23;;;9.00;99.90;;;;;;5057251;28;20083;-72
2022/03/10 10:23:40;;;;;;;19.23;13.82;;;9.20;99.90;;;;;;5075013;28;20182;-71
2022/03/10 10:26:09;;;;;;;18.55;13.55;;;9.10;99.90;;;;;;5075019;28;20083;-73
2022/03/10 10:28:37;;;;;;;22.08;13.48;;;9.20;99.90;;;;;;5057580;28;20424;-73
2022/03/10 10:31:11;;;;;;;20.23;12.85;;;9.40;99.90;;;;;;5057824;28;20059;-73
2022/03/10 10:33:38;;;;;;;24.80;14.48;;;9.40;99.90;;;;;;5057333;28;20072;-71
2022/03/10 10:36:12;;;;;;;20.90;14.23;;;9.60;99.90;;;;;;5057303;28;20044;-74
2022/03/10 10:38:39;;;;;;;21.30;13.32;;;9.70;99.90;;;;;;5036784;28;20044;-73
2022/03/10 10:41:20;;;;;;;24.10;13.23;;;9.80;99.90;;;;;;5062474;28;20056;-74
2022/03/10 10:43:49;;;;;;;21.25;13.43;;;9.90;98.80;;;;;;5056915;28;20109;-72
2022/03/10 10:46:42;;;;;;;22.77;13.63;;;10.10;99.20;;;;;;5074842;28;20202;-72
2022/03/10 10:49:10;;;;;;;20.83;13.15;;;10.10;99.70;;;;;;5072888;28;20496;-72
2022/03/10 10:51:44;;;;;;;19.13;13.63;;;10.10;99.80;;;;;;5074443;28;20368;-72
2022/03/10 10:54:26;;;;;;;20.60;13.68;;;10.20;99.90;;;;;;5057461;28;20174;-73
2022/03/10 10:57:01;;;;;;;20.77;14.00;;;10.40;99.30;;;;;;5073440;28;20048;-72
2022/03/10 10:59:37;;;;;;;24.20;14.10;;;10.50;95.70;;;;;;5074093;28;20131;-74
2022/03/10 11:02:12;;;;;;;22.40;13.13;;;10.60;94.90;;;;;;5056204;28;20067;-73
2022/03/10 11:04:40;;;;;;;21.80;13.43;;;10.70;94.30;;;;;;5056510;28;20044;-72
2022/03/10 11:07:08;;;;;;;19.63;13.70;;;10.80;93.30;;;;;;5040115;28;20087;-72
2022/03/10 11:09:34;;;;;;;19.48;13.30;;;10.80;92.90;;;;;;5056031;28;20052;-72
2022/03/10 11:11:59;;;;;;;22.08;14.15;;;11.00;95.20;;;;;;5074561;28;20448;-72
2022/03/10 11:14:25;;;;;;;19.55;14.07;;;11.10;93.80;;;;;;5056693;28;20044;-73
2022/03/10 11:16:52;;;;;;;20.45;13.88;;;11.20;91.40;;;;;;5074780;28;20135;-72
2022/03/10 11:19:25;;;;;;;21.55;13.88;;;11.30;92.30;;;;;;5074382;28;20064;-72
2022/03/10 11:22:28;;;;;;;18.85;13.88;;;11.40;90.90;;;;;;5056653;28;20045;-72
2022/03/10 11:25:20;;;;;;;23.67;14.13;;;11.40;82.80;;;;;;5074275;28;20045;-71
2022/03/10 11:27:55;;;;;;;20.60;14.13;;;11.60;79.30;;;;;;5073825;28;20123;-72
2022/03/10 11:30:28;;;;;;;21.02;14.73;;;11.70;83.10;;;;;;5040325;28;20049;-72
2022/03/10 11:33:01;;;;;;;;;;;11.70;78.70;;;;;;5074855;28;20045;-73
2022/03/10 11:35:38;;;;;;;23.42;14.02;;;11.90;81.30;;;;;;5056574;28;19920;-74
2022/03/10 11:38:03;;;;;;;19.00;13.25;;;11.90;79.00;;;;;;5074498;28;20049;-72
2022/03/10 11:40:44;;;;;;;22.30;14.57;;;11.90;78.20;;;;;;5054613;28;20444;-73
2022/03/10 11:43:11;;;;;;;21.70;14.65;;;12.00;76.60;;;;;;5054346;28;20045;-73
2022/03/10 11:45:37;;;;;;;22.45;14.25;;;12.20;76.60;;;;;;5054399;28;20041;-73
2022/03/10 11:48:27;;;;;;;21.00;13.95;;;12.30;73.60;;;;;;5053976;28;20123;-72
2022/03/10 11:50:54;;;;;;;19.90;13.32;;;12.30;75.60;;;;;;5037017;28;20118;-75
2022/03/10 11:53:20;;;;;;;24.75;14.48;;;12.40;79.90;;;;;;5054675;28;20114;-73
2022/03/10 11:55:51;;;;;;;19.92;13.75;;;12.40;76.40;;;;;;5036918;28;20053;-72
2022/03/10 11:58:19;;;;;;;21.83;14.20;;;12.50;82.00;;;;;;5038350;28;20084;-73
2022/03/10 12:00:51;;;;;;;21.55;14.25;;;12.60;79.60;;;;;;5058275;28;20103;-74
2022/03/10 12:03:36;;;;;;;23.10;15.07;;;12.60;74.10;;;;;;5040329;28;20110;-73
2022/03/10 12:06:15;;;;;;;19.23;13.63;;;12.70;71.10;;;;;;5058261;28;20044;-73
2022/03/10 12:08:41;;;;;;;22.85;14.32;;;12.80;72.60;;;;;;5043050;28;20106;-73
2022/03/10 12:11:14;;;;;;;23.48;14.45;;;12.80;69.50;;;;;;5077982;28;20052;-72
2022/03/10 12:13:44;;;;;;;19.75;13.82;;;12.90;70.60;;;;;;5058365;28;20044;-72
2022/03/10 12:16:36;;;;;;;18.77;13.70;;;13.00;74.90;;;;;;5057634;28;20048;-72
2022/03/10 12:19:01;;;;;;;21.25;14.38;;;13.00;72.10;;;;;;5036946;28;20057;-72
2022/03/10 12:21:30;;;;;;;23.63;13.98;;;13.10;71.90;;;;;;5057856;28;20388;-72
2022/03/10 12:23:57;;;;;;;21.23;13.85;;;13.10;71.60;;;;;;5057607;28;20124;-72
2022/03/10 12:26:29;;;;;;;22.80;14.73;;;13.10;70.80;;;;;;5057253;28;20132;-71
2022/03/10 12:29:00;;;;;;;20.48;14.10;;;13.20;69.60;;;;;;5040274;28;20127;-74
2022/03/10 12:31:28;;;;;;;19.52;14.43;;;13.20;72.50;;;;;;5039867;28;20410;-74
2022/03/10 12:33:59;;;;;;;20.58;13.52;;;13.20;72.90;;;;;;5040247;28;20049;-73
2022/03/10 12:36:26;;;;;;;22.30;14.55;;;13.40;70.50;;;;;;5057076;28;20049;-72